sensor_id;sensor_type;location;lat;lon;timestamp;temperature;humidity
23697;DHT22;48864;50.820;4.400;2022-07-25T00:01:35;26.00;99.90
23697;DHT22;48864;50.820;4.400;2022-07-25T00:04:00;26.00;99.90
23697;DHT22;48864;50.820;4.400;2022-07-25T00:06:26;26.10;99.90
23697;DHT22;48864;50.820;4.400;2022-07-25T00:08:51;26.10;99.90
23697;DHT22;48864;50.820;4.400;2022-07-25T00:11:17;26.10;99.90
23697;DHT22;48864;50.820;4.400;2022-07-25T00:13:43;26.00;99.90
23697;DHT22;48864;50.820;4.400;2022-07-25T00:16:08;26.00;99.90
23697;DHT22;48864;50.820;4.400;2022-07-25T00:18:34;26.00;99.90
23697;DHT22;48864;50.820;4.400;2022-07-25T00:21:00;25.90;99.90
23697;DHT22;48864;50.820;4.400;2022-07-25T00:23:27;25.90;99.90
23697;DHT22;48864;50.820;4.400;2022-07-25T00:25:53;25.80;99.90
23697;DHT22;48864;50.820;4.400;2022-07-25T00:28:19;25.90;99.90
23697;DHT22;48864;50.820;4.400;2022-07-25T00:30:44;25.90;99.90
23697;DHT22;48864;50.820;4.400;2022-07-25T00:33:10;25.90;99.90
23697;DHT22;48864;50.820;4.400;2022-07-25T00:35:36;25.80;99.90
23697;DHT22;48864;50.820;4.400;2022-07-25T00:38:01;25.70;99.90
23697;DHT22;48864;50.820;4.400;2022-07-25T00:40:27;25.80;99.90
23697;DHT22;48864;50.820;4.400;2022-07-25T00:42:53;25.90;99.90
23697;DHT22;48864;50.820;4.400;2022-07-25T00:45:18;25.90;99.90
23697;DHT22;48864;50.820;4.400;2022-07-25T00:47:44;25.80;99.90
23697;DHT22;48864;50.820;4.400;2022-07-25T00:50:09;25.80;99.90
23697;DHT22;48864;50.820;4.400;2022-07-25T00:52:35;25.80;99.90
23697;DHT22;48864;50.820;4.400;2022-07-25T00:55:01;25.80;99.90
23697;DHT22;48864;50.820;4.400;2022-07-25T00:57:26;25.80;99.90
23697;DHT22;48864;50.820;4.400;2022-07-25T00:59:52;25.70;99.90
23697;DHT22;48864;50.820;4.400;2022-07-25T01:02:18;25.50;99.90
23697;DHT22;48864;50.820;4.400;2022-07-25T01:04:43;25.40;99.90
23697;DHT22;48864;50.820;4.400;2022-07-25T01:07:09;25.40;99.90
23697;DHT22;48864;50.820;4.400;2022-07-25T01:09:35;25.20;99.90
23697;DHT22;48864;50.820;4.400;2022-07-25T01:12:01;25.20;99.90
23697;DHT22;48864;50.820;4.400;2022-07-25T01:14:26;25.20;99.90
23697;DHT22;48864;50.820;4.400;2022-07-25T01:16:52;25.30;99.90
23697;DHT22;48864;50.820;4.400;2022-07-25T01:19:18;25.30;99.90
23697;DHT22;48864;50.820;4.400;2022-07-25T01:21:43;25.30;99.90
23697;DHT22;48864;50.820;4.400;2022-07-25T01:24:10;25.20;99.90
23697;DHT22;48864;50.820;4.400;2022-07-25T01:26:36;25.30;99.90
23697;DHT22;48864;50.820;4.400;2022-07-25T01:29:02;25.10;99.90
23697;DHT22;48864;50.820;4.400;2022-07-25T01:31:28;25.10;99.90
23697;DHT22;48864;50.820;4.400;2022-07-25T01:33:53;24.90;99.90
23697;DHT22;48864;50.820;4.400;2022-07-25T01:36:19;24.90;99.90
23697;DHT22;48864;50.820;4.400;2022-07-25T01:38:44;24.80;99.90
23697;DHT22;48864;50.820;4.400;2022-07-25T01:41:10;24.80;99.90
23697;DHT22;48864;50.820;4.400;2022-07-25T01:43:35;24.90;99.90
23697;DHT22;48864;50.820;4.400;2022-07-25T01:46:01;24.90;99.90
23697;DHT22;48864;50.820;4.400;2022-07-25T01:48:27;25.00;99.90
23697;DHT22;48864;50.820;4.400;2022-07-25T01:50:52;25.00;99.90
23697;DHT22;48864;50.820;4.400;2022-07-25T01:53:18;24.90;99.90
23697;DHT22;48864;50.820;4.400;2022-07-25T01:55:44;24.90;99.90
23697;DHT22;48864;50.820;4.400;2022-07-25T01:58:10;24.70;99.90
23697;DHT22;48864;50.820;4.400;2022-07-25T02:00:35;24.50;99.90
23697;DHT22;48864;50.820;4.400;2022-07-25T02:03:01;24.30;99.90
23697;DHT22;48864;50.820;4.400;2022-07-25T02:05:45;24.50;99.90
23697;DHT22;48864;50.820;4.400;2022-07-25T02:08:11;24.30;99.90
23697;DHT22;48864;50.820;4.400;2022-07-25T02:10:36;24.20;99.90
23697;DHT22;48864;50.820;4.400;2022-07-25T02:13:02;24.30;99.90
23697;DHT22;48864;50.820;4.400;2022-07-25T02:15:28;24.10;99.90
23697;DHT22;48864;50.820;4.400;2022-07-25T02:17:53;24.10;99.90
23697;DHT22;48864;50.820;4.400;2022-07-25T02:20:19;24.10;99.90
23697;DHT22;48864;50.820;4.400;2022-07-25T02:22:44;24.20;99.90
23697;DHT22;48864;50.820;4.400;2022-07-25T02:25:10;24.20;99.90
23697;DHT22;48864;50.820;4.400;2022-07-25T02:27:36;24.20;99.90
23697;DHT22;48864;50.820;4.400;2022-07-25T02:30:01;24.20;99.90
23697;DHT22;48864;50.820;4.400;2022-07-25T02:32:27;24.30;99.90
23697;DHT22;48864;50.820;4.400;2022-07-25T02:34:52;24.20;99.90
23697;DHT22;48864;50.820;4.400;2022-07-25T02:37:18;24.30;99.90
23697;DHT22;48864;50.820;4.400;2022-07-25T02:39:59;24.10;99.90
23697;DHT22;48864;50.820;4.400;2022-07-25T02:42:25;24.00;99.90
23697;DHT22;48864;50.820;4.400;2022-07-25T02:44:50;24.10;99.90
23697;DHT22;48864;50.820;4.400;2022-07-25T02:47:16;24.30;99.90
23697;DHT22;48864;50.820;4.400;2022-07-25T02:49:41;24.20;99.90
23697;DHT22;48864;50.820;4.400;2022-07-25T02:52:07;24.20;99.90
23697;DHT22;48864;50.820;4.400;2022-07-25T02:54:32;23.90;99.90
23697;DHT22;48864;50.820;4.400;2022-07-25T02:56:58;23.90;99.90
23697;DHT22;48864;50.820;4.400;2022-07-25T02:59:24;23.80;99.90
23697;DHT22;48864;50.820;4.400;2022-07-25T03:01:49;23.80;99.90
23697;DHT22;48864;50.820;4.400;2022-07-25T03:04:15;23.80;99.90
23697;DHT22;48864;50.820;4.400;2022-07-25T03:06:40;23.80;99.90
23697;DHT22;48864;50.820;4.400;2022-07-25T03:09:06;23.70;99.90
23697;DHT22;48864;50.820;4.400;2022-07-25T03:11:31;23.80;99.90
23697;DHT22;48864;50.820;4.400;2022-07-25T03:13:59;23.60;99.90
23697;DHT22;48864;50.820;4.400;2022-07-25T03:16:24;23.60;99.90
23697;DHT22;48864;50.820;4.400;2022-07-25T03:18:50;23.40;99.90
23697;DHT22;48864;50.820;4.400;2022-07-25T03:21:16;23.40;99.90
23697;DHT22;48864;50.820;4.400;2022-07-25T03:23:42;23.40;99.90
23697;DHT22;48864;50.820;4.400;2022-07-25T03:26:08;23.40;99.90
23697;DHT22;48864;50.820;4.400;2022-07-25T03:28:33;23.40;99.90
23697;DHT22;48864;50.820;4.400;2022-07-25T03:30:59;23.30;99.90
23697;DHT22;48864;50.820;4.400;2022-07-25T03:33:25;23.20;99.90
23697;DHT22;48864;50.820;4.400;2022-07-25T03:35:50;23.20;99.90
23697;DHT22;48864;50.820;4.400;2022-07-25T03:38:16;23.20;99.90
23697;DHT22;48864;50.820;4.400;2022-07-25T03:40:41;23.30;99.90
23697;DHT22;48864;50.820;4.400;2022-07-25T03:43:07;23.30;99.90
23697;DHT22;48864;50.820;4.400;2022-07-25T03:45:32;23.40;99.90
23697;DHT22;48864;50.820;4.400;2022-07-25T03:47:58;23.20;99.90
23697;DHT22;48864;50.820;4.400;2022-07-25T03:50:24;23.10;99.90
23697;DHT22;48864;50.820;4.400;2022-07-25T03:52:49;23.20;99.90
23697;DHT22;48864;50.820;4.400;2022-07-25T03:55:15;23.30;99.90
23697;DHT22;48864;50.820;4.400;2022-07-25T03:57:40;23.40;99.90
23697;DHT22;48864;50.820;4.400;2022-07-25T04:00:08;23.40;99.90
23697;DHT22;48864;50.820;4.400;2022-07-25T04:02:35;23.30;99.90
23697;DHT22;48864;50.820;4.400;2022-07-25T04:05:02;23.20;99.90
23697;DHT22;48864;50.820;4.400;2022-07-25T04:07:28;23.10;99.90
23697;DHT22;48864;50.820;4.400;2022-07-25T04:09:53;23.00;99.90
23697;DHT22;48864;50.820;4.400;2022-07-25T04:12:19;23.00;99.90
23697;DHT22;48864;50.820;4.400;2022-07-25T04:14:44;22.90;99.90
23697;DHT22;48864;50.820;4.400;2022-07-25T04:17:10;22.70;99.90
23697;DHT22;48864;50.820;4.400;2022-07-25T04:19:35;22.70;99.90
23697;DHT22;48864;50.820;4.400;2022-07-25T04:22:01;22.60;99.90
23697;DHT22;48864;50.820;4.400;2022-07-25T04:24:26;22.60;99.90
23697;DHT22;48864;50.820;4.400;2022-07-25T04:26:52;22.50;99.90
23697;DHT22;48864;50.820;4.400;2022-07-25T04:29:18;22.50;99.90
23697;DHT22;48864;50.820;4.400;2022-07-25T04:31:43;22.50;99.90
23697;DHT22;48864;50.820;4.400;2022-07-25T04:34:09;22.50;99.90
23697;DHT22;48864;50.820;4.400;2022-07-25T04:36:35;22.50;99.90
23697;DHT22;48864;50.820;4.400;2022-07-25T04:39:00;22.60;99.90
23697;DHT22;48864;50.820;4.400;2022-07-25T04:41:26;22.50;99.90
23697;DHT22;48864;50.820;4.400;2022-07-25T04:43:51;22.30;99.90
23697;DHT22;48864;50.820;4.400;2022-07-25T04:46:19;22.30;99.90
23697;DHT22;48864;50.820;4.400;2022-07-25T04:48:45;22.30;99.90
23697;DHT22;48864;50.820;4.400;2022-07-25T04:51:10;22.20;99.90
23697;DHT22;48864;50.820;4.400;2022-07-25T04:53:36;22.30;99.90
23697;DHT22;48864;50.820;4.400;2022-07-25T04:56:02;22.10;99.90
23697;DHT22;48864;50.820;4.400;2022-07-25T04:58:27;22.10;99.90
23697;DHT22;48864;50.820;4.400;2022-07-25T05:01:19;22.00;99.90
23697;DHT22;48864;50.820;4.400;2022-07-25T05:03:44;22.00;99.90
23697;DHT22;48864;50.820;4.400;2022-07-25T05:06:10;21.90;99.90
23697;DHT22;48864;50.820;4.400;2022-07-25T05:08:35;21.80;99.90
23697;DHT22;48864;50.820;4.400;2022-07-25T05:11:01;21.70;99.90
23697;DHT22;48864;50.820;4.400;2022-07-25T05:13:27;21.70;99.90
23697;DHT22;48864;50.820;4.400;2022-07-25T05:15:52;21.60;99.90
23697;DHT22;48864;50.820;4.400;2022-07-25T05:18:18;21.80;99.90
23697;DHT22;48864;50.820;4.400;2022-07-25T05:20:43;21.50;99.90
23697;DHT22;48864;50.820;4.400;2022-07-25T05:23:09;21.50;99.90
23697;DHT22;48864;50.820;4.400;2022-07-25T05:25:34;21.50;99.90
23697;DHT22;48864;50.820;4.400;2022-07-25T05:28:00;21.60;99.90
23697;DHT22;48864;50.820;4.400;2022-07-25T05:30:27;21.70;99.90
23697;DHT22;48864;50.820;4.400;2022-07-25T05:32:52;21.70;99.90
23697;DHT22;48864;50.820;4.400;2022-07-25T05:35:18;21.50;99.90
23697;DHT22;48864;50.820;4.400;2022-07-25T05:37:43;21.50;99.90
23697;DHT22;48864;50.820;4.400;2022-07-25T05:40:09;21.50;99.90
23697;DHT22;48864;50.820;4.400;2022-07-25T05:42:41;21.60;99.90
23697;DHT22;48864;50.820;4.400;2022-07-25T05:45:07;21.60;99.90
23697;DHT22;48864;50.820;4.400;2022-07-25T05:47:41;21.40;99.90
23697;DHT22;48864;50.820;4.400;2022-07-25T05:50:07;21.40;99.90
23697;DHT22;48864;50.820;4.400;2022-07-25T05:52:32;21.30;99.90
23697;DHT22;48864;50.820;4.400;2022-07-25T05:54:58;21.40;99.90
23697;DHT22;48864;50.820;4.400;2022-07-25T05:57:24;21.20;99.90
23697;DHT22;48864;50.820;4.400;2022-07-25T05:59:49;21.20;99.90
23697;DHT22;48864;50.820;4.400;2022-07-25T06:02:15;21.10;99.90
23697;DHT22;48864;50.820;4.400;2022-07-25T06:04:40;21.00;99.90
23697;DHT22;48864;50.820;4.400;2022-07-25T06:07:06;20.90;99.90
23697;DHT22;48864;50.820;4.400;2022-07-25T06:09:32;20.90;99.90
23697;DHT22;48864;50.820;4.400;2022-07-25T06:11:57;21.00;99.90
23697;DHT22;48864;50.820;4.400;2022-07-25T06:14:24;21.10;99.90
23697;DHT22;48864;50.820;4.400;2022-07-25T06:16:49;21.10;99.90
23697;DHT22;48864;50.820;4.400;2022-07-25T06:19:15;21.10;99.90
23697;DHT22;48864;50.820;4.400;2022-07-25T06:21:40;21.10;99.90
23697;DHT22;48864;50.820;4.400;2022-07-25T06:24:06;21.20;99.90
23697;DHT22;48864;50.820;4.400;2022-07-25T06:26:32;21.20;99.90
23697;DHT22;48864;50.820;4.400;2022-07-25T06:28:57;21.00;99.90
23697;DHT22;48864;50.820;4.400;2022-07-25T06:31:23;20.90;99.90
23697;DHT22;48864;50.820;4.400;2022-07-25T06:33:49;20.90;99.90
23697;DHT22;48864;50.820;4.400;2022-07-25T06:36:15;20.90;99.90
23697;DHT22;48864;50.820;4.400;2022-07-25T06:38:40;20.80;99.90
23697;DHT22;48864;50.820;4.400;2022-07-25T06:41:13;20.70;99.90
23697;DHT22;48864;50.820;4.400;2022-07-25T06:43:38;20.90;99.90
23697;DHT22;48864;50.820;4.400;2022-07-25T06:46:04;20.80;99.90
23697;DHT22;48864;50.820;4.400;2022-07-25T06:48:30;20.80;99.90
23697;DHT22;48864;50.820;4.400;2022-07-25T06:51:23;20.70;99.90
23697;DHT22;48864;50.820;4.400;2022-07-25T06:53:48;20.70;99.90
23697;DHT22;48864;50.820;4.400;2022-07-25T06:56:14;20.50;99.90
23697;DHT22;48864;50.820;4.400;2022-07-25T06:58:40;20.40;99.90
23697;DHT22;48864;50.820;4.400;2022-07-25T07:01:05;20.40;99.90
23697;DHT22;48864;50.820;4.400;2022-07-25T07:03:44;20.50;99.90
23697;DHT22;48864;50.820;4.400;2022-07-25T10:45:01;22.80;99.90
23697;DHT22;48864;50.820;4.400;2022-07-25T10:47:33;22.90;99.90
23697;DHT22;48864;50.820;4.400;2022-07-25T10:50:03;23.00;99.90
23697;DHT22;48864;50.820;4.400;2022-07-25T10:52:29;23.00;99.90
23697;DHT22;48864;50.820;4.400;2022-07-25T10:54:59;23.00;99.90
23697;DHT22;48864;50.820;4.400;2022-07-25T10:57:27;23.10;99.90
23697;DHT22;48864;50.820;4.400;2022-07-25T10:59:53;23.00;99.90
23697;DHT22;48864;50.820;4.400;2022-07-25T11:02:19;22.90;99.90
23697;DHT22;48864;50.820;4.400;2022-07-25T11:04:52;22.90;99.90
23697;DHT22;48864;50.820;4.400;2022-07-25T11:07:22;23.00;99.90
23697;DHT22;48864;50.820;4.400;2022-07-25T11:09:56;22.70;99.90
23697;DHT22;48864;50.820;4.400;2022-07-25T11:12:23;22.70;99.90
23697;DHT22;48864;50.820;4.400;2022-07-25T11:14:48;22.60;99.90
23697;DHT22;48864;50.820;4.400;2022-07-25T11:17:19;22.50;99.90
23697;DHT22;48864;50.820;4.400;2022-07-25T11:19:55;22.50;99.90
23697;DHT22;48864;50.820;4.400;2022-07-25T11:22:20;22.40;99.90
23697;DHT22;48864;50.820;4.400;2022-07-25T11:24:47;22.30;99.90
23697;DHT22;48864;50.820;4.400;2022-07-25T11:29:49;22.40;99.90
23697;DHT22;48864;50.820;4.400;2022-07-25T11:32:14;22.30;99.90
23697;DHT22;48864;50.820;4.400;2022-07-25T11:34:47;22.20;99.90
23697;DHT22;48864;50.820;4.400;2022-07-25T11:37:14;22.10;99.90
23697;DHT22;48864;50.820;4.400;2022-07-25T11:39:42;22.00;99.90
23697;DHT22;48864;50.820;4.400;2022-07-25T11:42:16;21.90;99.90
23697;DHT22;48864;50.820;4.400;2022-07-25T11:44:47;22.00;99.90
23697;DHT22;48864;50.820;4.400;2022-07-25T11:47:26;22.00;99.90
23697;DHT22;48864;50.820;4.400;2022-07-25T11:49:54;22.00;99.90
23697;DHT22;48864;50.820;4.400;2022-07-25T11:52:27;21.80;99.90
23697;DHT22;48864;50.820;4.400;2022-07-25T11:55:00;21.80;99.90
23697;DHT22;48864;50.820;4.400;2022-07-25T11:57:31;21.80;99.90
23697;DHT22;48864;50.820;4.400;2022-07-25T11:59:59;21.80;99.90
23697;DHT22;48864;50.820;4.400;2022-07-25T12:02:32;21.70;99.90
23697;DHT22;48864;50.820;4.400;2022-07-25T12:05:04;21.80;99.90
23697;DHT22;48864;50.820;4.400;2022-07-25T12:10:06;21.90;99.90
23697;DHT22;48864;50.820;4.400;2022-07-25T12:12:49;22.00;99.90
23697;DHT22;48864;50.820;4.400;2022-07-25T12:15:23;21.90;99.90
23697;DHT22;48864;50.820;4.400;2022-07-25T12:17:51;22.00;99.90
23697;DHT22;48864;50.820;4.400;2022-07-25T12:20:21;22.10;99.90
23697;DHT22;48864;50.820;4.400;2022-07-25T12:22:48;22.10;99.90
23697;DHT22;48864;50.820;4.400;2022-07-25T12:25:14;22.20;99.90
23697;DHT22;48864;50.820;4.400;2022-07-25T12:27:40;22.30;99.90
23697;DHT22;48864;50.820;4.400;2022-07-25T12:30:07;22.30;99.90
23697;DHT22;48864;50.820;4.400;2022-07-25T12:32:33;22.30;99.90
23697;DHT22;48864;50.820;4.400;2022-07-25T12:34:58;22.30;99.90
23697;DHT22;48864;50.820;4.400;2022-07-25T12:37:25;22.40;99.90
23697;DHT22;48864;50.820;4.400;2022-07-25T12:39:51;22.30;99.90
23697;DHT22;48864;50.820;4.400;2022-07-25T12:42:17;22.10;99.90
23697;DHT22;48864;50.820;4.400;2022-07-25T12:44:43;22.10;99.90
23697;DHT22;48864;50.820;4.400;2022-07-25T12:47:09;22.10;99.90
23697;DHT22;48864;50.820;4.400;2022-07-25T12:49:34;22.30;99.90
23697;DHT22;48864;50.820;4.400;2022-07-25T12:52:00;22.30;99.90
23697;DHT22;48864;50.820;4.400;2022-07-25T12:54:26;22.30;99.90
23697;DHT22;48864;50.820;4.400;2022-07-25T12:56:52;22.40;99.90
23697;DHT22;48864;50.820;4.400;2022-07-25T12:59:18;22.40;99.90
23697;DHT22;48864;50.820;4.400;2022-07-25T13:01:44;22.50;99.90
23697;DHT22;48864;50.820;4.400;2022-07-25T13:04:09;22.60;99.90
23697;DHT22;48864;50.820;4.400;2022-07-25T13:06:35;22.60;99.90
23697;DHT22;48864;50.820;4.400;2022-07-25T13:09:02;22.60;99.90
23697;DHT22;48864;50.820;4.400;2022-07-25T13:11:28;22.70;99.90
23697;DHT22;48864;50.820;4.400;2022-07-25T13:13:54;22.80;99.90
23697;DHT22;48864;50.820;4.400;2022-07-25T13:16:19;22.80;99.90
23697;DHT22;48864;50.820;4.400;2022-07-25T13:18:45;22.80;99.90
23697;DHT22;48864;50.820;4.400;2022-07-25T13:21:11;22.80;99.90
23697;DHT22;48864;50.820;4.400;2022-07-25T13:23:37;22.80;99.90
23697;DHT22;48864;50.820;4.400;2022-07-25T13:26:03;22.90;99.90
23697;DHT22;48864;50.820;4.400;2022-07-25T13:28:29;22.80;99.90
23697;DHT22;48864;50.820;4.400;2022-07-25T13:30:55;22.80;99.90
23697;DHT22;48864;50.820;4.400;2022-07-25T13:33:21;22.80;99.90
23697;DHT22;48864;50.820;4.400;2022-07-25T13:35:47;22.90;99.90
23697;DHT22;48864;50.820;4.400;2022-07-25T13:38:13;22.90;99.90
23697;DHT22;48864;50.820;4.400;2022-07-25T13:40:39;23.00;99.90
23697;DHT22;48864;50.820;4.400;2022-07-25T13:43:12;23.10;99.90
23697;DHT22;48864;50.820;4.400;2022-07-25T13:45:39;22.90;99.90
23697;DHT22;48864;50.820;4.400;2022-07-25T13:48:05;22.90;99.90
23697;DHT22;48864;50.820;4.400;2022-07-25T13:50:31;22.80;99.90
23697;DHT22;48864;50.820;4.400;2022-07-25T13:52:57;22.90;99.90
23697;DHT22;48864;50.820;4.400;2022-07-25T13:55:29;22.80;99.90
23697;DHT22;48864;50.820;4.400;2022-07-25T13:57:55;22.80;99.90
23697;DHT22;48864;50.820;4.400;2022-07-25T14:00:21;22.80;99.90
23697;DHT22;48864;50.820;4.400;2022-07-25T14:02:46;22.90;99.90
23697;DHT22;48864;50.820;4.400;2022-07-25T14:05:12;23.00;99.90
23697;DHT22;48864;50.820;4.400;2022-07-25T14:07:38;23.10;99.90
23697;DHT22;48864;50.820;4.400;2022-07-25T14:10:05;23.20;99.90
23697;DHT22;48864;50.820;4.400;2022-07-25T14:12:33;23.20;99.90
23697;DHT22;48864;50.820;4.400;2022-07-25T14:14:59;23.20;99.90
23697;DHT22;48864;50.820;4.400;2022-07-25T14:17:24;23.30;99.90
23697;DHT22;48864;50.820;4.400;2022-07-25T14:19:50;23.30;99.90
23697;DHT22;48864;50.820;4.400;2022-07-25T14:22:16;23.40;99.90
23697;DHT22;48864;50.820;4.400;2022-07-25T14:24:41;23.40;99.90
23697;DHT22;48864;50.820;4.400;2022-07-25T14:27:07;23.40;99.90
23697;DHT22;48864;50.820;4.400;2022-07-25T14:29:32;23.50;99.90
23697;DHT22;48864;50.820;4.400;2022-07-25T14:31:58;23.60;99.90
23697;DHT22;48864;50.820;4.400;2022-07-25T14:34:23;23.60;99.90
23697;DHT22;48864;50.820;4.400;2022-07-25T14:36:49;23.60;99.90
23697;DHT22;48864;50.820;4.400;2022-07-25T14:39:14;23.70;99.90
23697;DHT22;48864;50.820;4.400;2022-07-25T14:41:41;23.80;99.90
23697;DHT22;48864;50.820;4.400;2022-07-25T14:44:07;23.80;99.90
23697;DHT22;48864;50.820;4.400;2022-07-25T14:46:32;23.60;99.90
23697;DHT22;48864;50.820;4.400;2022-07-25T14:48:58;23.60;99.90
23697;DHT22;48864;50.820;4.400;2022-07-25T14:51:24;23.70;99.90
23697;DHT22;48864;50.820;4.400;2022-07-25T14:53:49;23.80;99.90
23697;DHT22;48864;50.820;4.400;2022-07-25T14:56:16;23.90;99.90
23697;DHT22;48864;50.820;4.400;2022-07-25T14:58:41;23.80;99.90
23697;DHT22;48864;50.820;4.400;2022-07-25T15:01:07;23.60;99.90
23697;DHT22;48864;50.820;4.400;2022-07-25T15:03:34;23.60;99.90
23697;DHT22;48864;50.820;4.400;2022-07-25T15:06:01;23.60;99.90
23697;DHT22;48864;50.820;4.400;2022-07-25T15:08:27;23.70;99.90
23697;DHT22;48864;50.820;4.400;2022-07-25T15:10:56;23.50;99.90
23697;DHT22;48864;50.820;4.400;2022-07-25T15:13:21;23.50;99.90
23697;DHT22;48864;50.820;4.400;2022-07-25T15:15:47;23.40;99.90
23697;DHT22;48864;50.820;4.400;2022-07-25T15:18:13;23.30;99.90
23697;DHT22;48864;50.820;4.400;2022-07-25T15:20:39;23.40;99.90
23697;DHT22;48864;50.820;4.400;2022-07-25T15:23:05;23.60;99.90
23697;DHT22;48864;50.820;4.400;2022-07-25T15:25:31;23.50;99.90
23697;DHT22;48864;50.820;4.400;2022-07-25T15:27:59;23.50;99.90
23697;DHT22;48864;50.820;4.400;2022-07-25T15:30:25;23.70;99.90
23697;DHT22;48864;50.820;4.400;2022-07-25T15:32:51;23.90;99.90
23697;DHT22;48864;50.820;4.400;2022-07-25T15:35:16;24.10;99.90
23697;DHT22;48864;50.820;4.400;2022-07-25T15:37:42;23.90;99.90
23697;DHT22;48864;50.820;4.400;2022-07-25T15:40:11;23.90;99.90
23697;DHT22;48864;50.820;4.400;2022-07-25T15:42:37;24.00;99.90
23697;DHT22;48864;50.820;4.400;2022-07-25T15:45:04;24.10;99.90
23697;DHT22;48864;50.820;4.400;2022-07-25T15:47:31;24.10;99.90
23697;DHT22;48864;50.820;4.400;2022-07-25T15:49:57;24.10;99.90
23697;DHT22;48864;50.820;4.400;2022-07-25T15:52:23;24.20;99.90
23697;DHT22;48864;50.820;4.400;2022-07-25T15:54:51;23.90;99.90
23697;DHT22;48864;50.820;4.400;2022-07-25T15:57:17;23.70;99.90
23697;DHT22;48864;50.820;4.400;2022-07-25T15:59:42;23.60;99.90
23697;DHT22;48864;50.820;4.400;2022-07-25T16:02:08;23.50;99.90
23697;DHT22;48864;50.820;4.400;2022-07-25T16:04:38;23.50;99.90
23697;DHT22;48864;50.820;4.400;2022-07-25T16:07:04;23.70;99.90
23697;DHT22;48864;50.820;4.400;2022-07-25T16:09:30;23.80;99.90
23697;DHT22;48864;50.820;4.400;2022-07-25T16:11:55;23.70;99.90
23697;DHT22;48864;50.820;4.400;2022-07-25T16:14:21;23.80;99.90
23697;DHT22;48864;50.820;4.400;2022-07-25T16:16:46;24.00;99.90
23697;DHT22;48864;50.820;4.400;2022-07-25T16:19:12;23.90;99.90
23697;DHT22;48864;50.820;4.400;2022-07-25T16:21:37;23.70;99.90
23697;DHT22;48864;50.820;4.400;2022-07-25T16:24:05;23.50;99.90
23697;DHT22;48864;50.820;4.400;2022-07-25T16:26:31;23.50;99.90
23697;DHT22;48864;50.820;4.400;2022-07-25T16:28:58;23.60;99.90
23697;DHT22;48864;50.820;4.400;2022-07-25T16:31:24;23.40;99.90
23697;DHT22;48864;50.820;4.400;2022-07-25T16:33:51;23.20;99.90
23697;DHT22;48864;50.820;4.400;2022-07-25T16:36:17;23.10;99.90
23697;DHT22;48864;50.820;4.400;2022-07-25T16:38:43;23.10;99.90
23697;DHT22;48864;50.820;4.400;2022-07-25T16:41:11;23.10;99.90
23697;DHT22;48864;50.820;4.400;2022-07-25T16:43:39;23.00;99.90
23697;DHT22;48864;50.820;4.400;2022-07-25T16:46:05;22.90;99.90
23697;DHT22;48864;50.820;4.400;2022-07-25T16:48:33;23.00;99.90
23697;DHT22;48864;50.820;4.400;2022-07-25T16:50:59;23.00;99.90
23697;DHT22;48864;50.820;4.400;2022-07-25T16:53:25;23.10;99.90
23697;DHT22;48864;50.820;4.400;2022-07-25T16:55:50;23.00;99.90
23697;DHT22;48864;50.820;4.400;2022-07-25T16:58:16;23.10;99.90
23697;DHT22;48864;50.820;4.400;2022-07-25T17:00:42;23.10;99.90
23697;DHT22;48864;50.820;4.400;2022-07-25T17:03:10;22.90;99.90
23697;DHT22;48864;50.820;4.400;2022-07-25T17:05:36;22.70;99.90
23697;DHT22;48864;50.820;4.400;2022-07-25T17:08:02;22.80;99.90
23697;DHT22;48864;50.820;4.400;2022-07-25T17:10:27;22.70;99.90
23697;DHT22;48864;50.820;4.400;2022-07-25T17:12:54;22.70;99.90
23697;DHT22;48864;50.820;4.400;2022-07-25T17:15:20;22.70;99.90
23697;DHT22;48864;50.820;4.400;2022-07-25T17:17:46;22.70;99.90
23697;DHT22;48864;50.820;4.400;2022-07-25T17:20:11;22.60;99.90
23697;DHT22;48864;50.820;4.400;2022-07-25T17:22:37;22.60;99.90
23697;DHT22;48864;50.820;4.400;2022-07-25T17:25:03;22.70;99.90
23697;DHT22;48864;50.820;4.400;2022-07-25T17:27:29;22.50;99.90
23697;DHT22;48864;50.820;4.400;2022-07-25T17:29:54;22.40;99.90
23697;DHT22;48864;50.820;4.400;2022-07-25T17:32:20;22.20;99.90
23697;DHT22;48864;50.820;4.400;2022-07-25T17:34:48;22.00;99.90
23697;DHT22;48864;50.820;4.400;2022-07-25T17:37:14;22.00;99.90
23697;DHT22;48864;50.820;4.400;2022-07-25T17:39:40;22.00;99.90
23697;DHT22;48864;50.820;4.400;2022-07-25T17:42:05;22.10;99.90
23697;DHT22;48864;50.820;4.400;2022-07-25T17:44:32;22.00;99.90
23697;DHT22;48864;50.820;4.400;2022-07-25T17:46:59;21.90;99.90
23697;DHT22;48864;50.820;4.400;2022-07-25T17:49:25;22.00;99.90
23697;DHT22;48864;50.820;4.400;2022-07-25T17:51:51;22.00;99.90
23697;DHT22;48864;50.820;4.400;2022-07-25T17:54:17;21.90;99.90
23697;DHT22;48864;50.820;4.400;2022-07-25T17:56:44;21.90;99.90
23697;DHT22;48864;50.820;4.400;2022-07-25T17:59:11;21.80;99.90
23697;DHT22;48864;50.820;4.400;2022-07-25T18:01:37;21.80;99.90
23697;DHT22;48864;50.820;4.400;2022-07-25T18:04:04;21.70;99.90
23697;DHT22;48864;50.820;4.400;2022-07-25T18:06:29;21.70;99.90
23697;DHT22;48864;50.820;4.400;2022-07-25T18:08:55;21.70;99.90
23697;DHT22;48864;50.820;4.400;2022-07-25T18:11:21;21.70;99.90
23697;DHT22;48864;50.820;4.400;2022-07-25T18:13:47;21.60;99.90
23697;DHT22;48864;50.820;4.400;2022-07-25T18:16:12;21.60;99.90
23697;DHT22;48864;50.820;4.400;2022-07-25T18:18:38;21.60;99.90
23697;DHT22;48864;50.820;4.400;2022-07-25T18:21:04;21.60;99.90
23697;DHT22;48864;50.820;4.400;2022-07-25T18:23:30;21.60;99.90
23697;DHT22;48864;50.820;4.400;2022-07-25T18:25:56;21.60;99.90
23697;DHT22;48864;50.820;4.400;2022-07-25T18:28:22;21.60;99.90
23697;DHT22;48864;50.820;4.400;2022-07-25T18:30:48;21.40;99.90
23697;DHT22;48864;50.820;4.400;2022-07-25T18:33:13;21.50;99.90
23697;DHT22;48864;50.820;4.400;2022-07-25T18:35:41;21.50;99.90
23697;DHT22;48864;50.820;4.400;2022-07-25T18:38:07;21.50;99.90
23697;DHT22;48864;50.820;4.400;2022-07-25T18:40:33;21.60;99.90
23697;DHT22;48864;50.820;4.400;2022-07-25T18:42:59;21.50;99.90
23697;DHT22;48864;50.820;4.400;2022-07-25T18:45:24;21.50;99.90
23697;DHT22;48864;50.820;4.400;2022-07-25T18:47:50;21.50;99.90
23697;DHT22;48864;50.820;4.400;2022-07-25T18:50:15;21.30;99.90
23697;DHT22;48864;50.820;4.400;2022-07-25T18:52:44;21.30;99.90
23697;DHT22;48864;50.820;4.400;2022-07-25T18:55:09;21.20;99.90
23697;DHT22;48864;50.820;4.400;2022-07-25T18:57:35;21.20;99.90
23697;DHT22;48864;50.820;4.400;2022-07-25T19:00:01;21.00;99.90
23697;DHT22;48864;50.820;4.400;2022-07-25T19:02:26;21.10;99.90
23697;DHT22;48864;50.820;4.400;2022-07-25T19:04:57;21.10;99.90
23697;DHT22;48864;50.820;4.400;2022-07-25T19:07:23;21.10;99.90
23697;DHT22;48864;50.820;4.400;2022-07-25T19:09:50;21.20;99.90